Terminal Aerodrome Forecast
Issued by NWS Twin Cities, MN

Home | Current Version | Previous Version | Graphics & Text | Print | Product List | Glossary On
Versions: 1 2 3 4 5 6 7 8 9 10 11 12 13 14 15 16 17 18 19 20 21 22 23 24
000
FTUS43 KMPX 270851 AAA
TAFMSP
TAF AMD
KMSP 270851Z 2709/2812 34009KT P6SM SCT008 OVC015
      TEMPO 2709/2712 4SM -DZSN BKN008 OVC015
     FM271700 30012G18KT P6SM BKN020
     FM272000 30012G18KT P6SM BKN035
     FM280100 28007KT P6SM SCT035=

USA.gov is the U.S. government's official web portal to all federal, state and local government web resources and services.